Time;durP1;ratioP1;P1;durP2;ratioP2;P2;SDS_P1;SDS_P2;PMS_P1;PMS_P2;Temp;Humidity;BMP_temperature;BMP_pressure;BME280_temperature;BME280_humidity;BME280_pressure;Samples;Min_cycle;Max_cycle;Signal;HPM_P1;HPM_P2
2023/01/14 00:01:19;;;;;;;30.70;4.83;;;8.70;99.90;;;;;;5116353;28;20445;-61
2023/01/14 00:03:46;;;;;;;24.03;4.33;;;8.70;99.90;;;;;;5116244;28;20434;-60
2023/01/14 00:06:15;;;;;;;15.80;4.03;;;8.60;99.90;;;;;;5116321;28;20454;-60
2023/01/14 00:08:42;;;;;;;29.17;5.10;;;8.70;99.90;;;;;;5115706;28;20848;-60
2023/01/14 00:11:10;;;;;;;25.17;4.80;;;8.70;99.90;;;;;;5115988;28;20450;-59
2023/01/14 00:13:38;;;;;;;27.23;7.27;;;8.60;99.90;;;;;;5115849;28;20446;-59
2023/01/14 00:16:06;;;;;;;21.47;4.10;;;8.60;99.90;;;;;;5115573;28;21110;-59
2023/01/14 00:18:35;;;;;;;25.77;3.93;;;8.60;99.90;;;;;;5115914;27;20457;-60
2023/01/14 00:21:05;;;;;;;34.60;6.17;;;8.60;99.90;;;;;;5115759;27;20457;-59
2023/01/14 00:23:33;;;;;;;20.20;4.13;;;8.70;99.90;;;;;;5115728;28;20475;-60
2023/01/14 00:26:08;;;;;;;21.70;4.50;;;8.60;99.90;;;;;;5115737;28;20461;-60
2023/01/14 00:28:35;;;;;;;21.23;4.47;;;8.60;99.90;;;;;;5115755;28;20813;-60
2023/01/14 00:31:08;;;;;;;23.60;4.37;;;8.60;99.90;;;;;;5115558;28;20453;-59
2023/01/14 00:33:37;;;;;;;21.30;4.90;;;8.60;99.90;;;;;;5115273;28;20936;-59
2023/01/14 00:36:05;;;;;;;19.60;3.83;;;8.60;99.90;;;;;;5115474;28;20494;-59
2023/01/14 00:38:32;;;;;;;23.37;4.60;;;8.60;99.90;;;;;;5115368;28;20454;-60
2023/01/14 00:41:07;;;;;;;15.83;4.10;;;8.60;99.90;;;;;;5115253;28;20457;-60
2023/01/14 00:43:35;;;;;;;17.80;4.00;;;8.60;99.90;;;;;;5115262;28;20452;-59
2023/01/14 00:46:03;;;;;;;28.00;5.33;;;8.60;99.90;;;;;;5115377;28;20454;-60
2023/01/14 00:48:29;;;;;;;22.90;4.63;;;8.60;99.90;;;;;;5115282;28;20442;-60
2023/01/14 00:50:57;;;;;;;25.90;4.50;;;8.60;99.90;;;;;;5115281;28;20790;-60
2023/01/14 00:53:24;;;;;;;27.20;5.20;;;8.60;99.90;;;;;;5114704;28;20473;-59
2023/01/14 00:55:51;;;;;;;20.60;4.57;;;8.60;99.90;;;;;;5115000;28;20492;-60
2023/01/14 00:58:18;;;;;;;18.20;4.50;;;8.60;99.90;;;;;;5115142;28;20445;-60
2023/01/14 01:00:45;;;;;;;23.47;4.60;;;8.60;99.90;;;;;;5114963;28;20457;-60
2023/01/14 01:03:13;;;;;;;21.57;3.80;;;8.60;99.90;;;;;;5114614;28;21004;-59
2023/01/14 01:05:40;;;;;;;23.23;6.23;;;8.60;99.90;;;;;;5114950;28;20447;-60
2023/01/14 01:08:11;;;;;;;22.10;4.37;;;8.60;99.90;;;;;;5114855;28;20462;-60
2023/01/14 01:10:38;;;;;;;16.33;3.77;;;8.40;99.90;;;;;;5114879;28;20441;-60
2023/01/14 01:13:05;;;;;;;31.43;4.50;;;8.40;99.90;;;;;;5114416;28;20469;-60
2023/01/14 01:15:33;;;;;;;25.33;4.70;;;8.40;99.90;;;;;;5114738;28;20855;-60
2023/01/14 01:18:00;;;;;;;15.37;3.77;;;8.40;99.90;;;;;;5114740;28;20835;-60
2023/01/14 01:20:27;;;;;;;21.30;5.67;;;8.50;99.90;;;;;;5114553;28;20536;-59
2023/01/14 01:22:53;;;;;;;31.40;4.50;;;8.50;99.90;;;;;;5114255;28;21028;-60
2023/01/14 01:25:22;;;;;;;19.67;4.40;;;8.50;99.90;;;;;;5114643;28;20865;-60
2023/01/14 01:27:48;;;;;;;19.17;6.00;;;8.60;99.90;;;;;;5114674;28;20435;-60
2023/01/14 01:30:15;;;;;;;24.27;5.07;;;8.60;99.90;;;;;;5114484;28;20446;-60
2023/01/14 01:32:42;;;;;;;24.40;4.40;;;8.60;99.90;;;;;;5114340;28;20477;-60
2023/01/14 01:35:09;;;;;;;26.77;5.43;;;8.50;99.90;;;;;;5114543;28;20504;-60
2023/01/14 01:37:36;;;;;;;20.50;4.50;;;8.60;99.90;;;;;;5114362;28;20490;-60
2023/01/14 01:40:03;;;;;;;23.23;4.40;;;8.60;99.90;;;;;;5114231;28;20476;-60
2023/01/14 01:42:34;;;;;;;16.00;3.50;;;8.60;99.90;;;;;;5114091;28;20497;-60
2023/01/14 01:45:26;;;;;;;25.60;5.10;;;8.60;99.90;;;;;;5114275;28;20430;-60
2023/01/14 01:47:58;;;;;;;29.93;5.67;;;8.60;99.90;;;;;;5114381;28;20437;-59
2023/01/14 01:50:24;;;;;;;29.10;4.60;;;8.60;99.90;;;;;;5114204;28;20437;-60
2023/01/14 01:52:52;;;;;;;18.43;5.27;;;8.60;99.90;;;;;;5114187;28;20818;-60
2023/01/14 01:55:20;;;;;;;25.00;4.60;;;8.60;99.90;;;;;;5113841;28;20447;-60
2023/01/14 01:57:55;;;;;;;23.37;4.07;;;8.60;99.90;;;;;;5113955;28;20481;-60
2023/01/14 02:00:23;;;;;;;20.93;3.97;;;8.70;99.90;;;;;;5113790;28;20997;-60
2023/01/14 02:02:53;;;;;;;20.60;4.77;;;8.70;99.90;;;;;;5114156;28;20476;-60
2023/01/14 02:05:20;;;;;;;21.70;3.80;;;8.60;99.90;;;;;;5113504;28;20438;-60
2023/01/14 02:07:47;;;;;;;13.20;3.40;;;8.60;99.90;;;;;;5113620;28;20942;-60
2023/01/14 02:10:15;;;;;;;13.23;3.80;;;8.50;99.90;;;;;;5113967;28;20461;-60
2023/01/14 02:13:11;;;;;;;22.77;4.00;;;8.60;99.90;;;;;;5114089;28;20465;-60
2023/01/14 02:15:47;;;;;;;25.23;3.87;;;8.50;99.90;;;;;;5114117;28;20456;-60
2023/01/14 02:18:26;;;;;;;21.50;4.33;;;8.50;99.90;;;;;;5113889;28;20440;-60
2023/01/14 02:21:01;;;;;;;26.13;4.70;;;8.50;99.90;;;;;;5113967;28;20437;-59
2023/01/14 02:23:54;;;;;;;21.17;3.40;;;8.60;99.90;;;;;;5113818;28;20476;-60
2023/01/14 02:26:51;;;;;;;31.00;4.60;;;8.60;99.90;;;;;;5113935;28;20426;-60
2023/01/14 02:29:40;;;;;;;21.73;4.30;;;8.60;99.90;;;;;;5114312;28;20480;-60
2023/01/14 02:32:15;;;;;;;13.13;4.07;;;8.70;99.90;;;;;;5110859;28;20485;-60
2023/01/14 02:34:50;;;;;;;13.87;5.00;;;8.70;99.90;;;;;;5113725;28;20431;-60
2023/01/14 02:37:24;;;;;;;21.60;4.20;;;8.80;99.90;;;;;;5113585;28;20834;-60
2023/01/14 02:39:57;;;;;;;18.43;5.37;;;8.80;99.90;;;;;;5113461;28;20463;-60
2023/01/14 02:45:17;;;;;;;23.27;4.60;;;8.90;99.90;;;;;;5113734;28;20402;-60
2023/01/14 02:47:46;;;;;;;14.77;3.90;;;9.00;99.90;;;;;;5113710;28;20514;-60
2023/01/14 02:50:14;;;;;;;20.47;4.20;;;9.00;99.90;;;;;;5113460;28;20469;-60
2023/01/14 02:52:41;;;;;;;19.83;3.47;;;9.00;99.90;;;;;;5113418;28;20497;-60
2023/01/14 02:55:30;;;;;;;22.73;4.07;;;8.90;99.90;;;;;;5113490;28;20452;-60
2023/01/14 02:58:10;;;;;;;21.23;4.00;;;8.90;99.90;;;;;;5113542;28;20505;-61
2023/01/14 03:00:49;;;;;;;22.47;3.90;;;8.90;99.90;;;;;;5113596;28;20466;-61
2023/01/14 03:03:26;;;;;;;18.50;3.90;;;8.90;99.90;;;;;;5113450;28;20489;-60
2023/01/14 03:06:07;;;;;;;31.53;4.70;;;8.90;99.90;;;;;;5113464;28;20448;-60
2023/01/14 03:08:39;;;;;;;20.37;4.47;;;8.90;99.90;;;;;;5113558;28;20437;-61
2023/01/14 03:11:08;;;;;;;13.40;3.53;;;8.90;99.90;;;;;;5113396;28;20431;-61
2023/01/14 03:13:43;;;;;;;22.37;4.73;;;8.90;99.90;;;;;;5112979;28;20933;-60
2023/01/14 03:16:19;;;;;;;20.97;5.73;;;8.90;99.90;;;;;;5115151;28;20441;-61
2023/01/14 03:18:51;;;;;;;21.83;4.10;;;8.80;99.90;;;;;;5117106;27;20437;-61
2023/01/14 03:21:23;;;;;;;18.07;3.60;;;8.80;99.90;;;;;;5117150;28;20462;-60
2023/01/14 03:23:58;;;;;;;19.93;4.90;;;8.80;99.90;;;;;;5117054;28;20458;-60
2023/01/14 03:26:28;;;;;;;20.10;4.70;;;8.80;99.90;;;;;;5116633;28;20894;-60
2023/01/14 03:28:56;;;;;;;20.43;4.00;;;8.80;99.90;;;;;;5117153;28;20433;-60
2023/01/14 03:31:28;;;;;;;19.83;3.57;;;8.70;99.90;;;;;;5116743;28;20851;-61
2023/01/14 03:33:58;;;;;;;16.10;4.50;;;8.70;99.90;;;;;;5117579;28;20436;-60
2023/01/14 03:36:30;;;;;;;15.20;3.43;;;8.70;99.90;;;;;;5117291;28;20430;-60
2023/01/14 03:39:01;;;;;;;16.17;2.90;;;8.70;99.90;;;;;;5116667;28;20442;-61
2023/01/14 03:44:19;;;;;;;17.20;3.70;;;8.70;99.90;;;;;;5116505;28;20418;-60
2023/01/14 03:46:47;;;;;;;18.93;3.40;;;8.70;99.90;;;;;;5116786;28;20427;-61
2023/01/14 03:49:14;;;;;;;19.60;3.37;;;8.70;99.90;;;;;;5116490;28;20446;-61
2023/01/14 03:51:47;;;;;;;18.67;4.30;;;8.70;99.90;;;;;;5116532;28;20485;-60
2023/01/14 03:54:21;;;;;;;15.17;3.57;;;8.80;99.90;;;;;;5116413;28;20446;-60
2023/01/14 03:56:55;;;;;;;14.43;3.77;;;8.70;99.90;;;;;;5116328;27;20473;-61
2023/01/14 03:59:27;;;;;;;14.57;4.90;;;8.80;99.90;;;;;;5116369;28;20427;-61
2023/01/14 04:01:56;;;;;;;12.80;2.83;;;8.70;99.90;;;;;;5116129;28;20470;-61
2023/01/14 04:04:25;;;;;;;19.90;4.30;;;8.70;99.90;;;;;;5116204;28;20442;-61
2023/01/14 04:06:52;;;;;;;16.97;3.07;;;8.70;99.90;;;;;;5116085;27;20450;-61
2023/01/14 04:09:19;;;;;;;14.93;3.30;;;8.70;99.90;;;;;;5116130;28;20519;-60
2023/01/14 04:11:45;;;;;;;13.23;3.33;;;8.70;99.90;;;;;;5115937;28;20469;-60
2023/01/14 04:16:57;;;;;;;16.93;4.03;;;8.70;99.90;;;;;;5115664;28;20946;-60
2023/01/14 04:19:24;;;;;;;14.07;3.67;;;8.70;99.90;;;;;;5115916;28;20462;-61
2023/01/14 04:21:51;;;;;;;18.20;6.40;;;8.70;99.90;;;;;;5115541;27;20485;-60
2023/01/14 04:24:18;;;;;;;13.93;3.10;;;8.70;99.90;;;;;;5115923;28;20455;-60
2023/01/14 04:26:44;;;;;;;17.60;3.30;;;8.70;99.90;;;;;;5115452;28;20437;-60
2023/01/14 04:29:11;;;;;;;17.43;3.27;;;8.70;99.90;;;;;;5115406;28;20443;-60
2023/01/14 04:31:38;;;;;;;15.07;3.10;;;8.70;99.90;;;;;;5115777;28;20476;-61
2023/01/14 04:34:06;;;;;;;18.10;2.77;;;8.70;99.90;;;;;;5115400;28;20913;-61
2023/01/14 04:36:33;;;;;;;22.43;4.93;;;8.70;99.90;;;;;;5115622;28;20449;-61
2023/01/14 04:38:59;;;;;;;21.60;3.97;;;8.70;99.90;;;;;;5115593;28;20459;-60
2023/01/14 04:44:10;;;;;;;16.00;3.27;;;8.80;99.90;;;;;;5115305;28;20535;-61
2023/01/14 04:46:37;;;;;;;18.23;3.20;;;8.80;99.90;;;;;;5115457;28;20449;-60
2023/01/14 04:49:03;;;;;;;18.23;3.47;;;8.80;99.90;;;;;;5115446;28;20462;-60
2023/01/14 04:51:32;;;;;;;15.87;3.00;;;8.80;99.90;;;;;;5115303;28;20478;-60
2023/01/14 04:53:58;;;;;;;23.43;3.70;;;8.80;99.90;;;;;;5115409;28;20449;-61
2023/01/14 04:56:25;;;;;;;17.07;3.70;;;8.80;99.90;;;;;;5115338;27;20460;-60
2023/01/14 04:58:52;;;;;;;12.60;3.80;;;8.80;99.90;;;;;;5115298;28;20489;-60
2023/01/14 05:01:18;;;;;;;16.73;3.70;;;8.80;99.90;;;;;;5114974;28;20456;-60
2023/01/14 05:03:45;;;;;;;17.60;3.33;;;8.80;99.90;;;;;;5114749;28;20979;-61
2023/01/14 05:06:12;;;;;;;21.87;3.80;;;8.80;99.90;;;;;;5114921;28;20527;-60
2023/01/14 05:08:40;;;;;;;22.73;4.90;;;8.80;99.90;;;;;;5115136;28;20430;-60
2023/01/14 05:11:07;;;;;;;12.17;3.30;;;8.80;99.90;;;;;;5115033;28;20445;-60
2023/01/14 05:13:33;;;;;;;17.67;3.50;;;8.80;99.90;;;;;;5114980;28;20816;-60
2023/01/14 05:16:01;;;;;;;16.43;3.10;;;8.70;99.90;;;;;;5115066;28;20454;-61
2023/01/14 05:18:27;;;;;;;13.53;3.20;;;8.70;99.80;;;;;;5114893;28;20467;-60
2023/01/14 05:20:54;;;;;;;16.07;3.00;;;8.80;99.70;;;;;;5115468;28;20449;-61
2023/01/14 05:23:21;;;;;;;16.77;3.60;;;8.80;99.50;;;;;;5114941;28;20883;-60
2023/01/14 05:25:50;;;;;;;11.60;2.37;;;8.70;99.40;;;;;;5114997;27;20439;-61
2023/01/14 05:28:19;;;;;;;12.77;3.07;;;8.80;99.40;;;;;;5114966;28;20450;-61
2023/01/14 05:30:46;;;;;;;17.27;3.17;;;8.80;99.20;;;;;;5114410;28;20970;-61
2023/01/14 05:33:13;;;;;;;17.43;4.70;;;8.80;99.30;;;;;;5114734;28;20469;-61
2023/01/14 05:35:40;;;;;;;11.50;4.27;;;8.80;99.10;;;;;;5114757;28;20457;-61
2023/01/14 05:38:08;;;;;;;14.07;3.03;;;8.80;99.00;;;;;;5114570;28;20472;-60
2023/01/14 05:40:36;;;;;;;9.83;2.33;;;8.80;98.90;;;;;;5113521;28;20498;-60
2023/01/14 05:45:49;;;;;;;14.77;2.60;;;8.80;98.60;;;;;;5115139;28;20452;-61
2023/01/14 05:48:16;;;;;;;16.13;3.43;;;8.80;98.60;;;;;;5114779;28;20451;-60
2023/01/14 05:50:43;;;;;;;13.03;2.60;;;8.80;98.40;;;;;;5114402;28;20450;-60
2023/01/14 05:53:10;;;;;;;10.40;2.83;;;8.80;98.60;;;;;;5114499;28;20470;-60
2023/01/14 05:55:38;;;;;;;13.03;3.83;;;8.80;98.60;;;;;;5114563;28;20449;-60
2023/01/14 05:58:07;;;;;;;12.90;5.50;;;8.70;98.50;;;;;;5114607;28;20485;-61
2023/01/14 06:06:24;;;;;;;12.20;2.80;;;8.60;98.60;;;;;;5114742;28;20533;-60
2023/01/14 06:08:53;;;;;;;14.37;2.30;;;8.60;98.60;;;;;;5115450;28;20766;-61
2023/01/14 06:11:21;;;;;;;8.90;2.47;;;8.50;98.70;;;;;;5115340;28;20460;-60
2023/01/14 06:13:51;;;;;;;11.50;3.17;;;8.50;99.00;;;;;;5118247;28;20444;-60
2023/01/14 06:16:18;;;;;;;14.27;2.67;;;8.50;99.00;;;;;;5126056;27;20492;-60
2023/01/14 06:18:46;;;;;;;14.93;3.40;;;8.60;98.90;;;;;;5113775;28;21005;-60
2023/01/14 06:21:14;;;;;;;13.30;3.60;;;8.60;98.90;;;;;;5113631;28;20465;-61
2023/01/14 06:23:41;;;;;;;14.63;2.93;;;8.60;98.90;;;;;;5118098;28;20448;-60
2023/01/14 06:26:12;;;;;;;14.17;3.00;;;8.60;98.80;;;;;;5134749;27;20457;-60
2023/01/14 06:28:39;;;;;;;13.47;2.97;;;8.60;98.80;;;;;;5131408;27;20450;-60
2023/01/14 06:31:12;;;;;;;10.73;3.60;;;8.60;98.80;;;;;;5113794;28;20453;-60
2023/01/14 06:33:39;;;;;;;12.80;2.60;;;8.60;98.80;;;;;;5113590;28;20949;-60
2023/01/14 06:36:07;;;;;;;12.67;3.90;;;8.50;98.70;;;;;;5113715;28;20457;-60
2023/01/14 06:38:34;;;;;;;14.17;3.50;;;8.60;99.10;;;;;;5113665;28;20478;-61
2023/01/14 06:41:02;;;;;;;15.60;3.40;;;8.60;99.40;;;;;;5113666;28;20868;-61
2023/01/14 06:43:29;;;;;;;14.63;3.23;;;8.60;99.70;;;;;;5113364;28;20477;-60
2023/01/14 06:45:56;;;;;;;10.83;3.50;;;8.60;99.90;;;;;;5113190;28;20442;-60
2023/01/14 06:48:26;;;;;;;10.27;2.73;;;8.60;99.90;;;;;;5113058;28;20501;-60
2023/01/14 06:50:53;;;;;;;11.23;3.40;;;8.50;99.90;;;;;;5115152;28;20445;-60
2023/01/14 06:53:20;;;;;;;13.20;3.60;;;8.50;99.90;;;;;;5117277;28;21002;-61
2023/01/14 06:55:48;;;;;;;11.43;3.20;;;8.50;99.90;;;;;;5117493;28;20527;-61
2023/01/14 06:58:14;;;;;;;10.73;3.00;;;8.50;99.90;;;;;;5117176;28;20989;-61
2023/01/14 07:00:41;;;;;;;17.50;2.80;;;8.50;99.90;;;;;;5117327;27;20992;-60
2023/01/14 07:03:08;;;;;;;11.23;4.00;;;8.50;99.90;;;;;;5117260;28;20474;-61
2023/01/14 07:05:36;;;;;;;6.50;2.30;;;8.50;99.90;;;;;;5117339;28;20445;-61
2023/01/14 07:08:02;;;;;;;12.30;3.80;;;8.50;99.90;;;;;;5117287;28;20445;-61
2023/01/14 07:10:29;;;;;;;14.13;3.50;;;8.40;99.90;;;;;;5127576;27;20870;-60
2023/01/14 07:12:56;;;;;;;16.47;3.57;;;8.50;99.90;;;;;;5135871;27;20475;-59
2023/01/14 07:15:22;;;;;;;9.10;3.37;;;8.50;99.90;;;;;;5137902;27;20440;-60
2023/01/14 07:17:50;;;;;;;15.63;3.67;;;8.50;99.90;;;;;;5134730;27;20491;-59
2023/01/14 07:20:17;;;;;;;11.87;2.67;;;8.50;99.90;;;;;;5116912;27;20447;-59
2023/01/14 07:22:45;;;;;;;9.80;2.60;;;8.40;99.90;;;;;;5117131;28;20478;-60
2023/01/14 07:25:12;;;;;;;12.13;2.10;;;8.40;99.90;;;;;;5116878;27;20467;-60
2023/01/14 07:27:39;;;;;;;17.07;3.30;;;8.50;99.90;;;;;;5117737;27;20450;-59
2023/01/14 07:30:07;;;;;;;13.27;2.40;;;8.50;99.90;;;;;;5116788;28;20430;-59
2023/01/14 07:32:34;;;;;;;9.07;2.90;;;8.50;99.90;;;;;;5116792;28;20505;-60
2023/01/14 07:35:01;;;;;;;10.20;2.40;;;8.40;99.90;;;;;;5116639;27;20811;-60
2023/01/14 07:37:28;;;;;;;10.63;3.00;;;8.40;99.90;;;;;;5116578;28;20825;-60
2023/01/14 07:39:56;;;;;;;12.87;3.20;;;8.40;99.90;;;;;;5116529;27;20542;-61
2023/01/14 07:42:23;;;;;;;17.40;2.40;;;8.40;99.90;;;;;;5116261;27;20476;-60
2023/01/14 07:44:49;;;;;;;5.57;2.23;;;8.40;99.90;;;;;;5116620;28;20452;-61
2023/01/14 07:47:16;;;;;;;11.50;2.73;;;8.50;99.90;;;;;;5116601;28;20449;-60
2023/01/14 07:49:43;;;;;;;12.53;2.80;;;8.50;99.90;;;;;;5116515;28;20444;-60
2023/01/14 07:52:12;;;;;;;11.80;2.90;;;8.50;99.90;;;;;;5117412;27;20470;-60
2023/01/14 07:54:39;;;;;;;9.57;3.23;;;8.40;99.90;;;;;;5131866;27;20453;-60
2023/01/14 07:57:08;;;;;;;12.90;3.43;;;8.40;99.90;;;;;;5116008;28;20492;-60
2023/01/14 07:59:35;;;;;;;8.73;2.40;;;8.40;99.90;;;;;;5116309;28;20489;-61
2023/01/14 08:02:01;;;;;;;9.77;2.50;;;8.30;99.90;;;;;;5114822;27;20985;-61
2023/01/14 08:04:28;;;;;;;8.43;2.50;;;8.30;99.90;;;;;;5116009;28;20453;-60
2023/01/14 08:06:58;;;;;;;17.43;3.03;;;8.40;99.90;;;;;;5116214;28;20452;-61
2023/01/14 08:09:25;;;;;;;10.83;2.37;;;8.40;99.90;;;;;;5115821;28;21011;-61
2023/01/14 08:11:51;;;;;;;7.73;2.40;;;8.40;99.90;;;;;;5116076;28;20476;-61
2023/01/14 08:14:19;;;;;;;9.67;2.70;;;8.50;99.90;;;;;;5115583;28;20832;-60
2023/01/14 08:16:46;;;;;;;9.57;2.20;;;8.50;99.90;;;;;;5115704;28;20450;-60
2023/01/14 08:19:15;;;;;;;8.53;2.10;;;8.50;99.90;;;;;;5118037;27;21117;-60
2023/01/14 08:21:42;;;;;;;10.83;3.10;;;8.50;99.90;;;;;;5121808;27;20572;-60
2023/01/14 08:24:08;;;;;;;10.00;1.80;;;8.50;99.90;;;;;;5120261;27;20445;-60
2023/01/14 08:26:35;;;;;;;8.40;2.00;;;8.50;99.90;;;;;;5116130;28;20434;-61
2023/01/14 08:29:02;;;;;;;11.37;2.27;;;8.50;99.90;;;;;;5115737;28;20454;-60
2023/01/14 08:31:30;;;;;;;7.73;1.83;;;8.60;99.90;;;;;;5115430;28;20481;-60
2023/01/14 08:34:00;;;;;;;5.07;1.57;;;8.70;99.90;;;;;;5126113;27;20557;-60
2023/01/14 08:36:27;;;;;;;5.43;1.27;;;8.70;99.90;;;;;;5137019;27;20434;-61
2023/01/14 08:38:54;;;;;;;2.77;1.53;;;8.70;99.90;;;;;;5118972;27;20485;-60
2023/01/14 08:41:21;;;;;;;4.37;1.53;;;8.80;99.90;;;;;;5115316;28;20867;-60
2023/01/14 08:43:50;;;;;;;5.13;1.40;;;8.90;99.90;;;;;;5115652;28;20454;-60
2023/01/14 08:46:16;;;;;;;6.53;0.97;;;8.90;99.90;;;;;;5115470;28;20511;-61
2023/01/14 08:48:45;;;;;;;3.30;1.13;;;9.00;99.90;;;;;;5115212;28;20446;-60
2023/01/14 08:51:13;;;;;;;4.50;1.30;;;9.00;99.90;;;;;;5115853;28;20812;-60
2023/01/14 08:53:40;;;;;;;4.83;1.40;;;9.10;99.90;;;;;;5115797;28;20793;-60
2023/01/14 08:56:10;;;;;;;3.03;1.07;;;9.10;99.90;;;;;;5115712;28;20519;-61
2023/01/14 08:58:37;;;;;;;1.57;0.80;;;9.20;99.90;;;;;;5116140;27;20473;-60
2023/01/14 09:01:06;;;;;;;2.90;0.93;;;9.20;99.90;;;;;;5115149;28;20457;-60
2023/01/14 09:03:35;;;;;;;3.07;0.80;;;9.20;99.90;;;;;;5115087;28;20504;-60
2023/01/14 09:06:06;;;;;;;3.60;1.60;;;9.30;99.90;;;;;;5115107;28;20455;-60
2023/01/14 09:17:10;;;;;;;3.23;2.00;;;9.40;99.90;;;;;;5114975;28;20437;-60
2023/01/14 09:19:39;;;;;;;4.13;1.00;;;9.40;99.90;;;;;;5126391;27;20481;-60
2023/01/14 09:22:09;;;;;;;6.33;1.20;;;9.40;99.90;;;;;;5135070;27;20487;-60
2023/01/14 09:24:36;;;;;;;2.73;0.93;;;9.50;99.90;;;;;;5136220;27;20765;-61
2023/01/14 09:27:02;;;;;;;2.57;0.90;;;9.50;99.90;;;;;;5135020;27;20459;-59
2023/01/14 09:29:29;;;;;;;2.20;0.90;;;9.50;99.90;;;;;;5132447;27;20943;-60
2023/01/14 09:31:56;;;;;;;2.80;0.80;;;9.50;99.90;;;;;;5134932;27;20464;-60
2023/01/14 09:34:23;;;;;;;5.13;0.87;;;9.50;99.90;;;;;;5135842;27;20450;-60
2023/01/14 09:36:50;;;;;;;2.73;0.93;;;9.50;99.90;;;;;;5134773;27;20500;-59
2023/01/14 09:39:18;;;;;;;2.63;0.87;;;9.60;99.90;;;;;;5133986;27;20470;-59
2023/01/14 09:41:52;;;;;;;1.83;0.67;;;9.60;99.90;;;;;;5134844;27;20481;-60
2023/01/14 09:44:20;;;;;;;3.80;1.00;;;9.60;99.90;;;;;;5133154;27;20438;-61
2023/01/14 09:46:47;;;;;;;2.03;0.87;;;9.70;99.90;;;;;;5135292;27;20456;-60
2023/01/14 09:49:18;;;;;;;3.93;1.37;;;9.70;99.90;;;;;;5125573;27;20462;-59
2023/01/14 09:52:25;;;;;;;1.90;0.97;;;9.70;99.90;;;;;;5113970;28;20471;-60
2023/01/14 09:55:03;;;;;;;2.60;0.70;;;9.80;99.90;;;;;;5114035;28;20429;-60
2023/01/14 09:57:44;;;;;;;4.17;1.10;;;9.80;99.90;;;;;;5114206;28;20442;-60
2023/01/14 10:00:26;;;;;;;3.93;0.73;;;9.80;99.90;;;;;;5113709;28;20481;-60
2023/01/14 10:03:03;;;;;;;3.40;1.13;;;9.80;99.90;;;;;;5113987;28;20458;-60
2023/01/14 10:05:33;;;;;;;6.40;1.00;;;9.80;99.90;;;;;;5113749;28;20427;-60
2023/01/14 10:08:04;;;;;;;4.10;1.10;;;9.80;99.90;;;;;;5114009;28;20437;-60
2023/01/14 10:10:36;;;;;;;2.10;1.20;;;9.80;99.90;;;;;;5113831;28;20436;-59
2023/01/14 10:13:09;;;;;;;1.60;1.03;;;9.90;99.90;;;;;;5113780;28;20829;-59
2023/01/14 10:15:40;;;;;;;3.43;1.00;;;9.90;99.90;;;;;;5113508;28;20434;-59
2023/01/14 10:18:15;;;;;;;6.10;1.70;;;9.90;99.90;;;;;;5113836;28;20438;-60
2023/01/14 10:20:50;;;;;;;4.23;1.13;;;9.90;99.90;;;;;;5112809;28;20821;-59
2023/01/14 10:23:21;;;;;;;4.20;1.13;;;9.90;99.90;;;;;;5113301;28;20476;-59
2023/01/14 10:25:51;;;;;;;6.47;1.53;;;9.90;99.90;;;;;;5115037;28;20443;-60
2023/01/14 10:28:22;;;;;;;5.73;1.20;;;10.00;99.90;;;;;;5117775;28;20455;-59
2023/01/14 10:30:51;;;;;;;5.20;1.73;;;10.00;99.90;;;;;;5117834;28;20429;-60
2023/01/14 10:33:19;;;;;;;7.73;1.87;;;10.00;99.90;;;;;;5117731;28;20468;-57
2023/01/14 10:35:52;;;;;;;3.40;1.10;;;10.00;99.90;;;;;;5117840;28;20830;-57
2023/01/14 10:38:21;;;;;;;4.80;2.07;;;10.10;99.90;;;;;;5117176;28;20533;-55
2023/01/14 10:40:51;;;;;;;7.07;3.67;;;10.00;99.90;;;;;;5117447;28;20469;-56
2023/01/14 10:43:32;;;;;;;8.60;4.07;;;10.00;99.90;;;;;;5117280;28;20977;-56
2023/01/14 10:46:02;;;;;;;4.93;1.67;;;9.90;99.90;;;;;;5117275;28;20932;-56
2023/01/14 10:48:37;;;;;;;4.63;1.60;;;10.00;99.90;;;;;;5116989;28;20437;-56
2023/01/14 10:51:30;;;;;;;3.00;1.37;;;10.00;99.90;;;;;;5121905;27;20447;-56
2023/01/14 10:54:13;;;;;;;4.00;1.10;;;10.00;99.90;;;;;;5137809;27;20509;-56
2023/01/14 10:56:46;;;;;;;2.27;1.10;;;9.90;99.90;;;;;;5150517;27;20437;-57
2023/01/14 10:59:31;;;;;;;3.30;1.10;;;9.90;99.90;;;;;;5142463;27;20524;-56
2023/01/14 11:01:58;;;;;;;2.03;1.00;;;9.90;99.90;;;;;;5117320;28;20462;-57
2023/01/14 11:04:29;;;;;;;4.93;1.40;;;10.00;99.90;;;;;;5117320;28;20449;-56
2023/01/14 11:06:56;;;;;;;2.70;0.90;;;10.00;99.90;;;;;;5117274;28;20910;-57
2023/01/14 11:09:28;;;;;;;6.10;1.10;;;10.10;99.90;;;;;;5117038;27;20931;-56
2023/01/14 11:11:57;;;;;;;3.57;0.87;;;10.10;99.90;;;;;;5116800;28;20886;-56
2023/01/14 11:14:29;;;;;;;2.93;1.07;;;10.20;99.90;;;;;;5117011;28;20447;-56
2023/01/14 11:16:56;;;;;;;3.17;1.30;;;10.20;99.90;;;;;;5117343;28;20435;-56
2023/01/14 11:19:24;;;;;;;3.43;1.20;;;10.20;99.90;;;;;;5117018;28;20467;-57
2023/01/14 11:21:52;;;;;;;2.67;0.80;;;10.30;99.90;;;;;;5116983;28;20556;-57
2023/01/14 11:24:28;;;;;;;3.33;0.87;;;10.30;99.90;;;;;;5116753;28;20448;-56
2023/01/14 11:27:02;;;;;;;3.00;0.90;;;10.30;99.90;;;;;;5120855;27;20441;-57
2023/01/14 11:29:32;;;;;;;7.53;1.10;;;10.30;99.90;;;;;;5137468;27;20428;-57
2023/01/14 11:32:06;;;;;;;0.70;0.70;;;10.30;99.90;;;;;;5125078;27;20480;-57
2023/01/14 11:34:37;;;;;;;1.27;0.70;;;10.40;99.90;;;;;;5116759;28;20936;-57
2023/01/14 11:37:17;;;;;;;4.20;0.80;;;10.40;99.90;;;;;;5116740;28;20442;-58
2023/01/14 11:39:49;;;;;;;2.20;0.90;;;10.40;99.90;;;;;;5116464;27;21011;-58
2023/01/14 11:42:34;;;;;;;2.70;1.27;;;10.40;99.90;;;;;;5120018;27;20478;-56
2023/01/14 11:45:03;;;;;;;2.60;0.43;;;10.40;99.90;;;;;;5137882;27;20436;-57
2023/01/14 11:47:31;;;;;;;1.03;0.40;;;10.40;99.90;;;;;;5118305;27;20453;-57
2023/01/14 11:50:16;;;;;;;5.40;0.80;;;10.50;99.90;;;;;;5116472;28;20442;-57
2023/01/14 11:52:57;;;;;;;1.53;0.70;;;10.50;99.90;;;;;;5116310;28;20973;-57
2023/01/14 11:55:25;;;;;;;1.33;0.60;;;10.50;99.90;;;;;;5116335;27;20445;-57
2023/01/14 11:57:53;;;;;;;0.67;0.43;;;10.50;99.90;;;;;;5116793;27;20458;-57
2023/01/14 12:00:21;;;;;;;1.20;0.43;;;10.50;99.90;;;;;;5117336;27;20485;-57
2023/01/14 12:02:58;;;;;;;2.03;1.17;;;10.50;99.90;;;;;;5137091;27;20499;-58
2023/01/14 12:05:25;;;;;;;1.60;0.50;;;10.50;99.90;;;;;;5137101;27;20438;-58
2023/01/14 12:07:55;;;;;;;1.13;0.50;;;10.60;99.90;;;;;;5136822;27;20469;-58
2023/01/14 12:10:23;;;;;;;1.03;0.63;;;10.60;99.90;;;;;;5137249;27;20536;-57
2023/01/14 12:18:35;;;;;;;0.67;0.40;;;10.60;99.90;;;;;;5116269;28;20418;-57
2023/01/14 12:21:04;;;;;;;1.50;0.60;;;10.60;99.90;;;;;;5115935;28;20420;-58
2023/01/14 12:23:37;;;;;;;0.40;0.40;;;10.60;99.90;;;;;;5116285;28;20544;-58
2023/01/14 12:26:14;;;;;;;1.93;0.60;;;10.60;99.90;;;;;;5116447;28;20787;-57
2023/01/14 12:28:44;;;;;;;1.23;0.80;;;10.60;99.90;;;;;;5116986;28;20421;-58
2023/01/14 12:31:18;;;;;;;3.10;1.83;;;10.70;99.90;;;;;;5116805;28;20427;-58
2023/01/14 12:33:50;;;;;;;1.43;0.70;;;10.70;99.90;;;;;;5117626;28;20433;-58
2023/01/14 12:36:21;;;;;;;2.30;0.70;;;10.70;99.90;;;;;;5116937;28;20804;-57
2023/01/14 12:47:29;;;;;;;2.37;2.00;;;10.70;99.90;;;;;;5116134;28;20425;-57
2023/01/14 12:49:57;;;;;;;1.40;1.03;;;10.80;99.90;;;;;;5114675;28;20432;-58
2023/01/14 12:52:27;;;;;;;13.23;6.77;;;10.80;99.90;;;;;;5115289;28;20469;-58
2023/01/14 12:54:56;;;;;;;2.80;1.57;;;10.80;99.90;;;;;;5114974;28;20861;-57
2023/01/14 12:57:24;;;;;;;1.00;0.47;;;10.80;99.90;;;;;;5115250;28;20457;-56
2023/01/14 12:59:56;;;;;;;1.77;0.50;;;10.80;99.90;;;;;;5115090;28;20503;-57
2023/01/14 13:02:31;;;;;;;0.50;0.50;;;10.80;99.90;;;;;;5115016;28;20498;-57
2023/01/14 13:05:02;;;;;;;1.93;0.80;;;10.80;99.90;;;;;;5115926;28;20436;-57
2023/01/14 13:07:32;;;;;;;3.10;0.43;;;10.90;99.90;;;;;;5115143;28;20506;-58
2023/01/14 13:10:02;;;;;;;0.40;0.40;;;10.90;99.90;;;;;;5115322;28;20435;-57
2023/01/14 13:12:32;;;;;;;0.63;0.60;;;10.80;99.90;;;;;;5114743;28;20562;-56
2023/01/14 13:15:03;;;;;;;1.23;0.40;;;10.80;99.90;;;;;;5115452;28;20439;-58
2023/01/14 13:17:34;;;;;;;1.17;0.40;;;10.80;99.90;;;;;;5114560;28;20824;-57
2023/01/14 13:20:04;;;;;;;2.50;0.60;;;10.90;99.90;;;;;;5114536;28;20467;-57
2023/01/14 13:22:46;;;;;;;1.17;0.40;;;10.90;99.90;;;;;;5134519;27;20559;-58
2023/01/14 13:25:34;;;;;;;2.50;0.67;;;10.90;99.90;;;;;;5135233;27;20813;-58
2023/01/14 13:28:02;;;;;;;0.97;0.60;;;10.90;99.90;;;;;;5135259;27;20434;-57
2023/01/14 13:30:50;;;;;;;1.80;0.60;;;11.00;99.90;;;;;;5135032;27;20453;-57
2023/01/14 13:33:19;;;;;;;1.40;0.40;;;11.00;99.90;;;;;;5135096;27;20470;-57
2023/01/14 13:36:12;;;;;;;1.07;0.50;;;11.00;99.90;;;;;;5135164;27;20967;-57
2023/01/14 13:38:42;;;;;;;1.33;0.50;;;11.00;99.90;;;;;;5135224;27;20426;-58
2023/01/14 13:41:11;;;;;;;0.60;0.60;;;11.00;99.90;;;;;;5134490;27;20541;-58
2023/01/14 13:43:40;;;;;;;2.10;0.97;;;11.00;99.90;;;;;;5134924;27;20456;-57
2023/01/14 13:46:15;;;;;;;1.23;0.60;;;11.10;99.90;;;;;;5134897;27;20441;-58